sensor_id;sensor_type;location;lat;lon;timestamp;P1;durP1;ratioP1;P2;durP2;ratioP2
7158;SDS011;63175;52.374;13.132;2022-12-07T00:01:05;6.60;;;6.00;;
7158;SDS011;63175;52.374;13.132;2022-12-07T00:03:33;7.67;;;6.00;;
7158;SDS011;63175;52.374;13.132;2022-12-07T00:06:00;6.33;;;5.80;;
7158;SDS011;63175;52.374;13.132;2022-12-07T00:08:28;6.17;;;5.53;;
7158;SDS011;63175;52.374;13.132;2022-12-07T00:10:59;5.30;;;4.90;;
7158;SDS011;63175;52.374;13.132;2022-12-07T00:13:27;5.77;;;4.50;;
7158;SDS011;63175;52.374;13.132;2022-12-07T00:15:54;6.40;;;4.97;;
7158;SDS011;63175;52.374;13.132;2022-12-07T00:18:20;5.73;;;4.90;;
7158;SDS011;63175;52.374;13.132;2022-12-07T00:20:47;5.10;;;4.67;;
7158;SDS011;63175;52.374;13.132;2022-12-07T00:23:14;4.90;;;4.50;;
7158;SDS011;63175;52.374;13.132;2022-12-07T00:25:41;5.17;;;4.77;;
7158;SDS011;63175;52.374;13.132;2022-12-07T00:28:09;5.03;;;4.60;;
7158;SDS011;63175;52.374;13.132;2022-12-07T00:30:36;4.50;;;4.20;;
7158;SDS011;63175;52.374;13.132;2022-12-07T00:33:03;4.90;;;4.50;;
7158;SDS011;63175;52.374;13.132;2022-12-07T00:35:29;5.17;;;4.67;;
7158;SDS011;63175;52.374;13.132;2022-12-07T00:37:56;4.80;;;4.23;;
7158;SDS011;63175;52.374;13.132;2022-12-07T00:40:23;4.57;;;4.17;;
7158;SDS011;63175;52.374;13.132;2022-12-07T00:42:50;5.63;;;5.00;;
7158;SDS011;63175;52.374;13.132;2022-12-07T00:45:18;4.17;;;3.87;;
7158;SDS011;63175;52.374;13.132;2022-12-07T00:47:45;4.87;;;4.47;;
7158;SDS011;63175;52.374;13.132;2022-12-07T00:50:12;5.83;;;4.40;;
7158;SDS011;63175;52.374;13.132;2022-12-07T00:52:38;4.27;;;3.87;;
7158;SDS011;63175;52.374;13.132;2022-12-07T00:55:05;4.13;;;3.73;;
7158;SDS011;63175;52.374;13.132;2022-12-07T00:57:33;3.20;;;2.93;;
7158;SDS011;63175;52.374;13.132;2022-12-07T01:00:00;5.07;;;4.67;;
7158;SDS011;63175;52.374;13.132;2022-12-07T01:02:28;4.00;;;3.70;;
7158;SDS011;63175;52.374;13.132;2022-12-07T01:04:54;3.70;;;3.50;;
7158;SDS011;63175;52.374;13.132;2022-12-07T01:07:21;4.23;;;3.90;;
7158;SDS011;63175;52.374;13.132;2022-12-07T01:09:48;4.30;;;3.90;;
7158;SDS011;63175;52.374;13.132;2022-12-07T01:12:15;6.47;;;4.53;;
7158;SDS011;63175;52.374;13.132;2022-12-07T01:14:42;3.40;;;3.20;;
7158;SDS011;63175;52.374;13.132;2022-12-07T01:17:08;3.77;;;3.47;;
7158;SDS011;63175;52.374;13.132;2022-12-07T01:19:37;3.80;;;3.00;;
7158;SDS011;63175;52.374;13.132;2022-12-07T01:22:04;3.70;;;3.40;;
7158;SDS011;63175;52.374;13.132;2022-12-07T01:24:31;3.50;;;3.30;;
7158;SDS011;63175;52.374;13.132;2022-12-07T01:26:57;3.50;;;3.30;;
7158;SDS011;63175;52.374;13.132;2022-12-07T01:29:24;3.77;;;3.47;;
7158;SDS011;63175;52.374;13.132;2022-12-07T01:31:51;3.30;;;3.10;;
7158;SDS011;63175;52.374;13.132;2022-12-07T01:34:18;3.67;;;3.37;;
7158;SDS011;63175;52.374;13.132;2022-12-07T01:36:46;3.27;;;2.97;;
7158;SDS011;63175;52.374;13.132;2022-12-07T01:39:13;3.60;;;3.30;;
7158;SDS011;63175;52.374;13.132;2022-12-07T01:41:40;3.63;;;3.43;;
7158;SDS011;63175;52.374;13.132;2022-12-07T01:44:18;3.23;;;3.03;;
7158;SDS011;63175;52.374;13.132;2022-12-07T01:46:48;3.20;;;3.00;;
7158;SDS011;63175;52.374;13.132;2022-12-07T01:49:17;3.33;;;3.13;;
7158;SDS011;63175;52.374;13.132;2022-12-07T01:51:50;3.77;;;3.47;;
7158;SDS011;63175;52.374;13.132;2022-12-07T01:54:20;2.87;;;2.70;;
7158;SDS011;63175;52.374;13.132;2022-12-07T01:56:49;2.90;;;2.80;;
7158;SDS011;63175;52.374;13.132;2022-12-07T01:59:19;3.00;;;2.80;;
7158;SDS011;63175;52.374;13.132;2022-12-07T02:01:50;3.00;;;2.80;;
7158;SDS011;63175;52.374;13.132;2022-12-07T02:04:18;2.93;;;2.73;;
7158;SDS011;63175;52.374;13.132;2022-12-07T02:06:45;3.27;;;3.07;;
7158;SDS011;63175;52.374;13.132;2022-12-07T02:09:14;3.83;;;3.63;;
7158;SDS011;63175;52.374;13.132;2022-12-07T02:11:41;2.97;;;2.80;;
7158;SDS011;63175;52.374;13.132;2022-12-07T02:14:08;3.10;;;2.90;;
7158;SDS011;63175;52.374;13.132;2022-12-07T02:16:38;3.20;;;2.70;;
7158;SDS011;63175;52.374;13.132;2022-12-07T02:19:19;2.70;;;2.50;;
7158;SDS011;63175;52.374;13.132;2022-12-07T02:22:14;2.37;;;2.23;;
7158;SDS011;63175;52.374;13.132;2022-12-07T02:25:06;2.50;;;2.30;;
7158;SDS011;63175;52.374;13.132;2022-12-07T02:27:43;2.83;;;2.63;;
7158;SDS011;63175;52.374;13.132;2022-12-07T02:30:14;3.10;;;2.90;;
7158;SDS011;63175;52.374;13.132;2022-12-07T02:32:44;4.10;;;3.80;;
7158;SDS011;63175;52.374;13.132;2022-12-07T02:35:17;2.90;;;2.70;;
7158;SDS011;63175;52.374;13.132;2022-12-07T02:37:49;3.23;;;2.90;;
7158;SDS011;63175;52.374;13.132;2022-12-07T02:40:25;2.43;;;2.23;;
7158;SDS011;63175;52.374;13.132;2022-12-07T02:42:55;2.57;;;2.47;;
7158;SDS011;63175;52.374;13.132;2022-12-07T02:45:29;4.00;;;2.77;;
7158;SDS011;63175;52.374;13.132;2022-12-07T02:47:58;3.40;;;3.20;;
7158;SDS011;63175;52.374;13.132;2022-12-07T02:50:26;3.07;;;2.87;;
7158;SDS011;63175;52.374;13.132;2022-12-07T02:52:54;3.27;;;3.07;;
7158;SDS011;63175;52.374;13.132;2022-12-07T02:55:22;3.50;;;3.30;;
7158;SDS011;63175;52.374;13.132;2022-12-07T02:57:57;3.43;;;3.13;;
7158;SDS011;63175;52.374;13.132;2022-12-07T03:00:40;3.80;;;3.50;;
7158;SDS011;63175;52.374;13.132;2022-12-07T03:03:15;3.57;;;3.37;;
7158;SDS011;63175;52.374;13.132;2022-12-07T03:05:46;4.70;;;4.20;;
7158;SDS011;63175;52.374;13.132;2022-12-07T03:08:28;4.00;;;3.70;;
7158;SDS011;63175;52.374;13.132;2022-12-07T03:11:02;4.27;;;3.97;;
7158;SDS011;63175;52.374;13.132;2022-12-07T03:13:32;4.37;;;4.03;;
7158;SDS011;63175;52.374;13.132;2022-12-07T03:16:05;4.37;;;4.07;;
7158;SDS011;63175;52.374;13.132;2022-12-07T03:18:37;4.93;;;4.53;;
7158;SDS011;63175;52.374;13.132;2022-12-07T03:21:10;5.13;;;4.63;;
7158;SDS011;63175;52.374;13.132;2022-12-07T03:23:40;5.93;;;5.23;;
7158;SDS011;63175;52.374;13.132;2022-12-07T03:26:10;6.03;;;5.43;;
7158;SDS011;63175;52.374;13.132;2022-12-07T03:28:42;6.70;;;5.40;;
7158;SDS011;63175;52.374;13.132;2022-12-07T03:31:13;5.10;;;4.63;;
7158;SDS011;63175;52.374;13.132;2022-12-07T03:33:44;6.20;;;5.03;;
7158;SDS011;63175;52.374;13.132;2022-12-07T03:36:17;5.67;;;4.87;;
7158;SDS011;63175;52.374;13.132;2022-12-07T03:38:49;7.73;;;5.40;;
7158;SDS011;63175;52.374;13.132;2022-12-07T03:41:20;7.10;;;5.30;;
7158;SDS011;63175;52.374;13.132;2022-12-07T03:43:49;9.20;;;6.70;;
7158;SDS011;63175;52.374;13.132;2022-12-07T03:46:19;6.63;;;5.97;;
7158;SDS011;63175;52.374;13.132;2022-12-07T03:48:54;6.90;;;5.47;;
7158;SDS011;63175;52.374;13.132;2022-12-07T03:51:28;7.63;;;5.77;;
7158;SDS011;63175;52.374;13.132;2022-12-07T03:54:02;6.60;;;5.40;;
7158;SDS011;63175;52.374;13.132;2022-12-07T03:56:36;8.03;;;7.00;;
7158;SDS011;63175;52.374;13.132;2022-12-07T03:59:05;7.77;;;6.17;;
7158;SDS011;63175;52.374;13.132;2022-12-07T04:01:34;7.50;;;6.43;;
7158;SDS011;63175;52.374;13.132;2022-12-07T04:04:01;9.90;;;6.87;;
7158;SDS011;63175;52.374;13.132;2022-12-07T04:06:28;9.93;;;7.57;;
7158;SDS011;63175;52.374;13.132;2022-12-07T04:08:54;12.93;;;7.27;;
7158;SDS011;63175;52.374;13.132;2022-12-07T04:11:21;11.90;;;8.20;;
7158;SDS011;63175;52.374;13.132;2022-12-07T04:13:48;9.70;;;7.50;;
7158;SDS011;63175;52.374;13.132;2022-12-07T04:16:33;10.03;;;7.63;;
7158;SDS011;63175;52.374;13.132;2022-12-07T04:19:00;10.33;;;8.00;;
7158;SDS011;63175;52.374;13.132;2022-12-07T04:21:27;7.40;;;6.60;;
7158;SDS011;63175;52.374;13.132;2022-12-07T04:23:54;10.70;;;8.90;;
7158;SDS011;63175;52.374;13.132;2022-12-07T04:26:21;14.43;;;9.83;;
7158;SDS011;63175;52.374;13.132;2022-12-07T04:28:47;12.60;;;8.97;;
7158;SDS011;63175;52.374;13.132;2022-12-07T04:31:14;8.80;;;7.90;;
7158;SDS011;63175;52.374;13.132;2022-12-07T04:33:42;13.20;;;9.37;;
7158;SDS011;63175;52.374;13.132;2022-12-07T04:36:09;12.23;;;9.03;;
7158;SDS011;63175;52.374;13.132;2022-12-07T04:38:36;9.97;;;8.87;;
7158;SDS011;63175;52.374;13.132;2022-12-07T04:41:04;11.90;;;9.63;;
7158;SDS011;63175;52.374;13.132;2022-12-07T04:43:32;11.43;;;9.67;;
7158;SDS011;63175;52.374;13.132;2022-12-07T04:45:58;14.10;;;10.63;;
7158;SDS011;63175;52.374;13.132;2022-12-07T04:48:25;13.40;;;10.50;;
7158;SDS011;63175;52.374;13.132;2022-12-07T04:50:54;11.87;;;8.70;;
7158;SDS011;63175;52.374;13.132;2022-12-07T04:53:21;11.63;;;9.53;;
7158;SDS011;63175;52.374;13.132;2022-12-07T04:55:47;14.47;;;10.23;;
7158;SDS011;63175;52.374;13.132;2022-12-07T04:58:15;11.57;;;9.00;;
7158;SDS011;63175;52.374;13.132;2022-12-07T05:00:41;13.17;;;10.07;;
7158;SDS011;63175;52.374;13.132;2022-12-07T05:03:08;14.13;;;10.83;;
7158;SDS011;63175;52.374;13.132;2022-12-07T05:05:35;13.50;;;10.00;;
7158;SDS011;63175;52.374;13.132;2022-12-07T05:08:03;12.37;;;9.90;;
7158;SDS011;63175;52.374;13.132;2022-12-07T05:10:30;13.53;;;11.07;;
7158;SDS011;63175;52.374;13.132;2022-12-07T05:12:57;11.73;;;9.70;;
7158;SDS011;63175;52.374;13.132;2022-12-07T05:15:24;13.43;;;10.00;;
7158;SDS011;63175;52.374;13.132;2022-12-07T05:17:51;15.23;;;10.90;;
7158;SDS011;63175;52.374;13.132;2022-12-07T05:20:18;15.90;;;10.53;;
7158;SDS011;63175;52.374;13.132;2022-12-07T05:22:45;20.37;;;12.13;;
7158;SDS011;63175;52.374;13.132;2022-12-07T05:25:13;16.67;;;11.07;;
7158;SDS011;63175;52.374;13.132;2022-12-07T05:27:40;16.27;;;11.57;;
7158;SDS011;63175;52.374;13.132;2022-12-07T05:30:07;20.73;;;13.17;;
7158;SDS011;63175;52.374;13.132;2022-12-07T05:32:35;25.10;;;13.83;;
7158;SDS011;63175;52.374;13.132;2022-12-07T05:35:02;24.23;;;14.90;;
7158;SDS011;63175;52.374;13.132;2022-12-07T05:37:29;17.33;;;11.30;;
7158;SDS011;63175;52.374;13.132;2022-12-07T05:39:55;19.27;;;12.40;;
7158;SDS011;63175;52.374;13.132;2022-12-07T05:42:23;22.27;;;14.30;;
7158;SDS011;63175;52.374;13.132;2022-12-07T05:44:50;19.00;;;13.40;;
7158;SDS011;63175;52.374;13.132;2022-12-07T05:47:18;20.77;;;13.30;;
7158;SDS011;63175;52.374;13.132;2022-12-07T05:49:45;19.87;;;13.50;;
7158;SDS011;63175;52.374;13.132;2022-12-07T05:52:12;20.00;;;13.50;;
7158;SDS011;63175;52.374;13.132;2022-12-07T05:54:38;20.47;;;13.03;;
7158;SDS011;63175;52.374;13.132;2022-12-07T05:57:05;21.07;;;12.50;;
7158;SDS011;63175;52.374;13.132;2022-12-07T05:59:33;21.20;;;11.87;;
7158;SDS011;63175;52.374;13.132;2022-12-07T06:02:00;18.83;;;12.03;;
7158;SDS011;63175;52.374;13.132;2022-12-07T06:04:28;21.00;;;13.63;;
7158;SDS011;63175;52.374;13.132;2022-12-07T06:06:56;18.63;;;11.63;;
7158;SDS011;63175;52.374;13.132;2022-12-07T06:09:24;22.30;;;14.17;;
7158;SDS011;63175;52.374;13.132;2022-12-07T06:11:52;21.90;;;13.53;;
7158;SDS011;63175;52.374;13.132;2022-12-07T06:14:38;19.87;;;12.90;;
7158;SDS011;63175;52.374;13.132;2022-12-07T06:17:05;23.87;;;13.30;;
7158;SDS011;63175;52.374;13.132;2022-12-07T06:19:32;19.43;;;13.20;;
7158;SDS011;63175;52.374;13.132;2022-12-07T06:22:01;20.67;;;13.03;;
7158;SDS011;63175;52.374;13.132;2022-12-07T06:24:29;22.20;;;13.37;;
7158;SDS011;63175;52.374;13.132;2022-12-07T06:26:57;21.90;;;13.87;;
7158;SDS011;63175;52.374;13.132;2022-12-07T06:29:24;17.50;;;13.00;;
7158;SDS011;63175;52.374;13.132;2022-12-07T06:31:52;21.60;;;14.07;;
7158;SDS011;63175;52.374;13.132;2022-12-07T06:34:20;21.53;;;14.10;;
7158;SDS011;63175;52.374;13.132;2022-12-07T06:36:48;24.13;;;14.63;;
7158;SDS011;63175;52.374;13.132;2022-12-07T06:39:18;26.60;;;13.83;;
7158;SDS011;63175;52.374;13.132;2022-12-07T06:41:46;18.10;;;12.90;;
7158;SDS011;63175;52.374;13.132;2022-12-07T06:44:13;22.87;;;13.60;;
7158;SDS011;63175;52.374;13.132;2022-12-07T06:46:40;20.50;;;12.50;;
7158;SDS011;63175;52.374;13.132;2022-12-07T06:49:08;24.83;;;14.00;;
7158;SDS011;63175;52.374;13.132;2022-12-07T06:51:36;19.17;;;12.93;;
7158;SDS011;63175;52.374;13.132;2022-12-07T06:54:07;19.20;;;13.00;;
7158;SDS011;63175;52.374;13.132;2022-12-07T06:56:34;25.07;;;14.60;;
7158;SDS011;63175;52.374;13.132;2022-12-07T06:59:01;19.43;;;13.60;;
7158;SDS011;63175;52.374;13.132;2022-12-07T07:01:28;20.37;;;13.93;;
7158;SDS011;63175;52.374;13.132;2022-12-07T07:03:55;23.50;;;13.77;;
7158;SDS011;63175;52.374;13.132;2022-12-07T07:06:23;23.00;;;13.90;;
7158;SDS011;63175;52.374;13.132;2022-12-07T07:08:50;29.80;;;12.97;;
7158;SDS011;63175;52.374;13.132;2022-12-07T07:11:17;18.40;;;12.30;;
7158;SDS011;63175;52.374;13.132;2022-12-07T07:13:44;19.23;;;12.87;;
7158;SDS011;63175;52.374;13.132;2022-12-07T07:16:11;18.80;;;13.17;;
7158;SDS011;63175;52.374;13.132;2022-12-07T07:18:38;17.97;;;13.10;;
7158;SDS011;63175;52.374;13.132;2022-12-07T07:21:05;16.10;;;12.33;;
7158;SDS011;63175;52.374;13.132;2022-12-07T07:23:33;20.17;;;14.47;;
7158;SDS011;63175;52.374;13.132;2022-12-07T07:26:00;19.70;;;11.87;;
7158;SDS011;63175;52.374;13.132;2022-12-07T07:28:27;18.57;;;12.00;;
7158;SDS011;63175;52.374;13.132;2022-12-07T07:30:54;16.33;;;12.00;;
7158;SDS011;63175;52.374;13.132;2022-12-07T07:33:20;20.20;;;12.77;;
7158;SDS011;63175;52.374;13.132;2022-12-07T07:35:47;14.00;;;11.20;;
7158;SDS011;63175;52.374;13.132;2022-12-07T07:38:14;33.23;;;12.70;;
7158;SDS011;63175;52.374;13.132;2022-12-07T07:40:42;13.83;;;10.80;;
7158;SDS011;63175;52.374;13.132;2022-12-07T07:43:09;16.40;;;12.00;;
7158;SDS011;63175;52.374;13.132;2022-12-07T07:45:36;16.00;;;10.10;;
7158;SDS011;63175;52.374;13.132;2022-12-07T07:48:03;17.03;;;10.60;;
7158;SDS011;63175;52.374;13.132;2022-12-07T07:50:30;14.63;;;10.97;;
7158;SDS011;63175;52.374;13.132;2022-12-07T07:52:57;13.40;;;10.03;;
7158;SDS011;63175;52.374;13.132;2022-12-07T07:55:24;17.63;;;11.00;;
7158;SDS011;63175;52.374;13.132;2022-12-07T07:57:52;13.93;;;10.47;;
7158;SDS011;63175;52.374;13.132;2022-12-07T08:00:20;19.13;;;10.90;;
7158;SDS011;63175;52.374;13.132;2022-12-07T08:02:48;19.37;;;10.60;;
7158;SDS011;63175;52.374;13.132;2022-12-07T08:05:15;16.17;;;10.93;;
7158;SDS011;63175;52.374;13.132;2022-12-07T08:07:42;12.97;;;9.40;;
7158;SDS011;63175;52.374;13.132;2022-12-07T08:10:10;16.60;;;9.93;;
7158;SDS011;63175;52.374;13.132;2022-12-07T08:12:38;12.90;;;10.00;;
7158;SDS011;63175;52.374;13.132;2022-12-07T08:15:28;17.83;;;10.13;;
7158;SDS011;63175;52.374;13.132;2022-12-07T08:17:56;13.53;;;9.33;;
7158;SDS011;63175;52.374;13.132;2022-12-07T08:20:23;16.47;;;8.33;;
7158;SDS011;63175;52.374;13.132;2022-12-07T08:22:50;10.40;;;8.70;;
7158;SDS011;63175;52.374;13.132;2022-12-07T08:25:17;8.60;;;6.70;;
7158;SDS011;63175;52.374;13.132;2022-12-07T08:27:44;8.40;;;6.90;;
7158;SDS011;63175;52.374;13.132;2022-12-07T08:30:11;8.73;;;7.07;;
7158;SDS011;63175;52.374;13.132;2022-12-07T08:32:40;6.37;;;5.40;;
7158;SDS011;63175;52.374;13.132;2022-12-07T08:35:07;5.00;;;4.27;;
7158;SDS011;63175;52.374;13.132;2022-12-07T08:37:34;4.50;;;4.10;;
7158;SDS011;63175;52.374;13.132;2022-12-07T08:40:02;3.50;;;3.27;;
7158;SDS011;63175;52.374;13.132;2022-12-07T08:42:30;5.80;;;3.40;;
7158;SDS011;63175;52.374;13.132;2022-12-07T08:45:03;3.23;;;3.03;;
7158;SDS011;63175;52.374;13.132;2022-12-07T08:47:31;3.53;;;2.60;;
7158;SDS011;63175;52.374;13.132;2022-12-07T08:50:00;4.03;;;2.77;;
7158;SDS011;63175;52.374;13.132;2022-12-07T08:52:29;5.60;;;3.00;;
7158;SDS011;63175;52.374;13.132;2022-12-07T08:54:56;3.07;;;2.87;;
7158;SDS011;63175;52.374;13.132;2022-12-07T08:57:24;2.70;;;2.50;;
7158;SDS011;63175;52.374;13.132;2022-12-07T08:59:51;2.93;;;2.10;;
7158;SDS011;63175;52.374;13.132;2022-12-07T09:02:18;3.40;;;2.27;;
7158;SDS011;63175;52.374;13.132;2022-12-07T09:04:45;3.20;;;2.50;;
7158;SDS011;63175;52.374;13.132;2022-12-07T09:07:13;4.10;;;2.40;;
7158;SDS011;63175;52.374;13.132;2022-12-07T09:09:40;2.10;;;2.00;;
7158;SDS011;63175;52.374;13.132;2022-12-07T09:12:07;7.03;;;2.73;;
7158;SDS011;63175;52.374;13.132;2022-12-07T09:14:35;2.50;;;2.30;;
7158;SDS011;63175;52.374;13.132;2022-12-07T09:17:05;2.60;;;2.40;;
7158;SDS011;63175;52.374;13.132;2022-12-07T09:19:33;6.00;;;2.43;;
7158;SDS011;63175;52.374;13.132;2022-12-07T09:22:00;2.57;;;2.37;;
7158;SDS011;63175;52.374;13.132;2022-12-07T09:24:28;3.10;;;2.37;;
7158;SDS011;63175;52.374;13.132;2022-12-07T09:26:55;3.30;;;2.40;;
7158;SDS011;63175;52.374;13.132;2022-12-07T09:29:22;2.43;;;2.30;;
7158;SDS011;63175;52.374;13.132;2022-12-07T09:31:49;6.93;;;2.63;;
7158;SDS011;63175;52.374;13.132;2022-12-07T09:34:15;2.90;;;2.70;;
7158;SDS011;63175;52.374;13.132;2022-12-07T09:36:42;4.50;;;3.00;;
7158;SDS011;63175;52.374;13.132;2022-12-07T09:39:09;3.47;;;3.13;;
7158;SDS011;63175;52.374;13.132;2022-12-07T09:41:38;2.70;;;2.50;;
7158;SDS011;63175;52.374;13.132;2022-12-07T09:44:10;2.80;;;2.60;;
7158;SDS011;63175;52.374;13.132;2022-12-07T09:46:39;2.53;;;2.43;;
7158;SDS011;63175;52.374;13.132;2022-12-07T09:49:09;2.47;;;2.27;;
7158;SDS011;63175;52.374;13.132;2022-12-07T09:51:40;2.80;;;2.30;;
7158;SDS011;63175;52.374;13.132;2022-12-07T09:54:07;4.07;;;2.70;;
7158;SDS011;63175;52.374;13.132;2022-12-07T09:56:39;2.93;;;2.40;;
7158;SDS011;63175;52.374;13.132;2022-12-07T09:59:09;2.30;;;2.10;;
7158;SDS011;63175;52.374;13.132;2022-12-07T10:01:42;2.60;;;2.40;;
7158;SDS011;63175;52.374;13.132;2022-12-07T10:04:11;3.60;;;2.83;;
7158;SDS011;63175;52.374;13.132;2022-12-07T10:06:41;2.53;;;2.33;;
7158;SDS011;63175;52.374;13.132;2022-12-07T10:09:09;2.70;;;2.50;;
7158;SDS011;63175;52.374;13.132;2022-12-07T10:14:31;5.23;;;2.60;;
7158;SDS011;63175;52.374;13.132;2022-12-07T10:17:00;2.70;;;2.60;;
7158;SDS011;63175;52.374;13.132;2022-12-07T10:19:28;2.40;;;2.30;;
7158;SDS011;63175;52.374;13.132;2022-12-07T10:22:00;4.97;;;2.67;;
7158;SDS011;63175;52.374;13.132;2022-12-07T10:24:30;3.20;;;2.90;;
7158;SDS011;63175;52.374;13.132;2022-12-07T10:26:57;2.20;;;2.10;;
7158;SDS011;63175;52.374;13.132;2022-12-07T10:29:28;2.83;;;2.67;;
7158;SDS011;63175;52.374;13.132;2022-12-07T10:31:57;4.00;;;2.33;;
7158;SDS011;63175;52.374;13.132;2022-12-07T10:34:26;3.00;;;2.73;;
7158;SDS011;63175;52.374;13.132;2022-12-07T10:37:07;3.73;;;3.43;;
7158;SDS011;63175;52.374;13.132;2022-12-07T10:39:41;2.73;;;2.53;;
7158;SDS011;63175;52.374;13.132;2022-12-07T10:42:15;2.53;;;2.20;;
7158;SDS011;63175;52.374;13.132;2022-12-07T10:44:45;4.20;;;2.50;;
7158;SDS011;63175;52.374;13.132;2022-12-07T10:52:59;2.20;;;2.00;;
7158;SDS011;63175;52.374;13.132;2022-12-07T10:55:39;2.10;;;2.00;;
7158;SDS011;63175;52.374;13.132;2022-12-07T10:58:18;4.80;;;2.40;;
7158;SDS011;63175;52.374;13.132;2022-12-07T11:00:57;3.47;;;2.60;;
7158;SDS011;63175;52.374;13.132;2022-12-07T11:03:34;2.67;;;2.47;;
7158;SDS011;63175;52.374;13.132;2022-12-07T11:06:14;2.73;;;2.33;;
7158;SDS011;63175;52.374;13.132;2022-12-07T11:08:54;3.40;;;1.97;;
7158;SDS011;63175;52.374;13.132;2022-12-07T11:11:30;3.30;;;2.37;;
7158;SDS011;63175;52.374;13.132;2022-12-07T11:14:03;4.17;;;2.60;;
7158;SDS011;63175;52.374;13.132;2022-12-07T11:16:45;3.73;;;2.40;;
7158;SDS011;63175;52.374;13.132;2022-12-07T11:19:24;2.47;;;2.37;;
7158;SDS011;63175;52.374;13.132;2022-12-07T11:22:01;3.63;;;2.53;;
7158;SDS011;63175;52.374;13.132;2022-12-07T11:24:40;3.83;;;2.20;;
7158;SDS011;63175;52.374;13.132;2022-12-07T11:27:15;3.40;;;2.27;;
7158;SDS011;63175;52.374;13.132;2022-12-07T11:29:53;4.13;;;2.90;;
7158;SDS011;63175;52.374;13.132;2022-12-07T11:32:51;3.43;;;2.77;;
7158;SDS011;63175;52.374;13.132;2022-12-07T11:35:27;4.43;;;2.47;;
7158;SDS011;63175;52.374;13.132;2022-12-07T11:38:03;2.50;;;1.90;;
7158;SDS011;63175;52.374;13.132;2022-12-07T11:40:37;2.83;;;2.60;;
7158;SDS011;63175;52.374;13.132;2022-12-07T11:43:09;6.47;;;2.17;;
7158;SDS011;63175;52.374;13.132;2022-12-07T11:45:45;2.70;;;2.20;;
7158;SDS011;63175;52.374;13.132;2022-12-07T11:48:18;2.30;;;2.10;;
7158;SDS011;63175;52.374;13.132;2022-12-07T11:50:51;4.83;;;2.63;;
7158;SDS011;63175;52.374;13.132;2022-12-07T11:53:21;6.60;;;1.53;;
7158;SDS011;63175;52.374;13.132;2022-12-07T11:55:53;10.30;;;2.20;;
7158;SDS011;63175;52.374;13.132;2022-12-07T11:58:30;2.00;;;1.90;;
7158;SDS011;63175;52.374;13.132;2022-12-07T12:01:11;5.43;;;2.10;;
7158;SDS011;63175;52.374;13.132;2022-12-07T12:03:52;2.07;;;1.87;;
7158;SDS011;63175;52.374;13.132;2022-12-07T12:06:21;2.40;;;1.87;;
7158;SDS011;63175;52.374;13.132;2022-12-07T12:08:50;1.80;;;1.70;;
7158;SDS011;63175;52.374;13.132;2022-12-07T12:11:27;2.43;;;2.17;;
7158;SDS011;63175;52.374;13.132;2022-12-07T12:14:14;2.57;;;2.07;;
7158;SDS011;63175;52.374;13.132;2022-12-07T12:17:01;2.20;;;1.70;;
7158;SDS011;63175;52.374;13.132;2022-12-07T12:19:55;2.20;;;1.83;;
7158;SDS011;63175;52.374;13.132;2022-12-07T12:22:28;4.10;;;1.50;;
7158;SDS011;63175;52.374;13.132;2022-12-07T12:25:02;5.23;;;2.20;;
7158;SDS011;63175;52.374;13.132;2022-12-07T12:27:33;4.10;;;1.70;;
7158;SDS011;63175;52.374;13.132;2022-12-07T12:30:01;2.83;;;1.87;;
7158;SDS011;63175;52.374;13.132;2022-12-07T12:32:33;2.50;;;1.50;;
7158;SDS011;63175;52.374;13.132;2022-12-07T12:37:50;3.10;;;1.60;;
7158;SDS011;63175;52.374;13.132;2022-12-07T12:40:41;6.73;;;1.63;;
7158;SDS011;63175;52.374;13.132;2022-12-07T12:55:23;8.53;;;1.80;;
7158;SDS011;63175;52.374;13.132;2022-12-07T12:58:25;2.53;;;1.37;;
7158;SDS011;63175;52.374;13.132;2022-12-07T13:04:21;5.40;;;2.13;;
7158;SDS011;63175;52.374;13.132;2022-12-07T13:06:51;2.73;;;1.77;;
7158;SDS011;63175;52.374;13.132;2022-12-07T13:09:20;4.10;;;1.97;;
7158;SDS011;63175;52.374;13.132;2022-12-07T13:11:54;3.90;;;1.37;;
7158;SDS011;63175;52.374;13.132;2022-12-07T13:14:39;3.70;;;1.30;;
7158;SDS011;63175;52.374;13.132;2022-12-07T13:20:40;2.03;;;1.27;;
7158;SDS011;63175;52.374;13.132;2022-12-07T13:23:16;2.20;;;1.60;;
7158;SDS011;63175;52.374;13.132;2022-12-07T13:25:51;2.27;;;1.30;;
7158;SDS011;63175;52.374;13.132;2022-12-07T13:28:25;3.67;;;1.20;;
7158;SDS011;63175;52.374;13.132;2022-12-07T13:31:13;3.70;;;1.60;;
7158;SDS011;63175;52.374;13.132;2022-12-07T13:33:45;3.33;;;1.40;;
7158;SDS011;63175;52.374;13.132;2022-12-07T13:36:18;3.87;;;1.40;;
7158;SDS011;63175;52.374;13.132;2022-12-07T13:38:52;4.23;;;1.80;;
7158;SDS011;63175;52.374;13.132;2022-12-07T13:41:21;3.33;;;1.60;;
7158;SDS011;63175;52.374;13.132;2022-12-07T13:43:52;1.50;;;1.40;;
7158;SDS011;63175;52.374;13.132;2022-12-07T13:46:25;2.33;;;1.43;;
7158;SDS011;63175;52.374;13.132;2022-12-07T13:49:15;3.00;;;2.17;;
7158;SDS011;63175;52.374;13.132;2022-12-07T13:51:44;5.67;;;1.60;;
7158;SDS011;63175;52.374;13.132;2022-12-07T13:54:12;7.20;;;1.50;;
7158;SDS011;63175;52.374;13.132;2022-12-07T13:56:40;4.10;;;1.70;;
7158;SDS011;63175;52.374;13.132;2022-12-07T13:59:12;5.37;;;1.80;;
7158;SDS011;63175;52.374;13.132;2022-12-07T14:01:42;5.30;;;2.00;;
7158;SDS011;63175;52.374;13.132;2022-12-07T14:04:29;4.20;;;1.60;;
7158;SDS011;63175;52.374;13.132;2022-12-07T14:06:58;4.20;;;1.80;;
7158;SDS011;63175;52.374;13.132;2022-12-07T14:09:27;7.40;;;2.00;;
7158;SDS011;63175;52.374;13.132;2022-12-07T14:11:55;2.20;;;1.63;;
7158;SDS011;63175;52.374;13.132;2022-12-07T14:14:25;3.30;;;1.90;;
7158;SDS011;63175;52.374;13.132;2022-12-07T14:16:55;1.60;;;1.50;;
7158;SDS011;63175;52.374;13.132;2022-12-07T14:19:41;1.67;;;1.53;;
7158;SDS011;63175;52.374;13.132;2022-12-07T14:22:20;3.33;;;1.80;;
7158;SDS011;63175;52.374;13.132;2022-12-07T14:27:55;1.67;;;1.50;;
7158;SDS011;63175;52.374;13.132;2022-12-07T14:30:25;3.10;;;1.63;;
7158;SDS011;63175;52.374;13.132;2022-12-07T14:32:54;3.20;;;1.83;;
7158;SDS011;63175;52.374;13.132;2022-12-07T14:35:23;3.10;;;2.43;;
7158;SDS011;63175;52.374;13.132;2022-12-07T14:37:51;5.17;;;1.80;;
7158;SDS011;63175;52.374;13.132;2022-12-07T14:40:18;4.93;;;1.90;;
7158;SDS011;63175;52.374;13.132;2022-12-07T14:42:47;7.33;;;2.20;;
7158;SDS011;63175;52.374;13.132;2022-12-07T14:45:17;5.87;;;1.60;;
7158;SDS011;63175;52.374;13.132;2022-12-07T14:47:46;3.37;;;1.90;;
7158;SDS011;63175;52.374;13.132;2022-12-07T14:50:15;5.30;;;1.40;;
7158;SDS011;63175;52.374;13.132;2022-12-07T14:52:43;3.73;;;1.57;;
7158;SDS011;63175;52.374;13.132;2022-12-07T14:55:14;5.13;;;2.57;;
7158;SDS011;63175;52.374;13.132;2022-12-07T14:57:46;9.90;;;1.93;;
7158;SDS011;63175;52.374;13.132;2022-12-07T15:00:14;6.83;;;2.10;;
7158;SDS011;63175;52.374;13.132;2022-12-07T15:02:42;3.90;;;1.87;;
7158;SDS011;63175;52.374;13.132;2022-12-07T15:05:10;2.93;;;2.33;;
7158;SDS011;63175;52.374;13.132;2022-12-07T15:07:38;2.73;;;1.50;;
7158;SDS011;63175;52.374;13.132;2022-12-07T15:10:06;7.93;;;1.87;;
7158;SDS011;63175;52.374;13.132;2022-12-07T15:12:39;5.60;;;1.70;;
7158;SDS011;63175;52.374;13.132;2022-12-07T15:15:06;4.83;;;1.57;;
7158;SDS011;63175;52.374;13.132;2022-12-07T15:17:33;3.73;;;1.53;;
7158;SDS011;63175;52.374;13.132;2022-12-07T15:20:00;9.80;;;3.37;;
7158;SDS011;63175;52.374;13.132;2022-12-07T15:22:29;2.73;;;1.27;;
7158;SDS011;63175;52.374;13.132;2022-12-07T15:24:57;3.50;;;1.33;;
7158;SDS011;63175;52.374;13.132;2022-12-07T15:27:23;4.37;;;1.90;;
7158;SDS011;63175;52.374;13.132;2022-12-07T15:29:50;3.83;;;2.10;;
7158;SDS011;63175;52.374;13.132;2022-12-07T15:32:18;3.07;;;2.00;;